LFRS

Nantes/Atlantique

Airport
ICAO code
LFRS
Summary
ICAO Region
EUR
ICAO Territory
Location

Nantes, Pays de la Loire,

Coordinates
47° 9' 12" N , 1° 36' 39" W
KCC
Cfb
Metar
Observation
LFRS 152100Z AUTO VRB02KT 9999 BKN037 BKN190 OVC210 20/17 Q1007 TEMPO BKN013
Station
Nantes
Date/Time
2022-08-15 21:00:00
Wind speed
02 kts
Lowest cloud amount
broken clouds
Temperature
20°C
Dew point
17°C
Humidity
82%
QNH
1007 hPa
Weather condition
n/a

Description

International airport serving western France and the city of Nantes.

Climatology

Temperate Marine climate/Oceanic climate (Köppen climate classification Cfb). Moderately cool summer and comparatively warm winter with a temperature range of only 14°C. Prevailing south-westerly winds from the Atlantic Ocean.

Runways

Designator Length Width Surface Rops
3/21 2900 45 ASP Yes/Yes

Airport map

Aerial View

SKYbrary Partners:

Safety knowledge contributed by: